createdAt,value
2017-03-23T00:00:26.691Z,20.15
2017-03-23T00:01:25.559Z,21.43
2017-03-23T00:02:24.375Z,23.27
2017-03-23T00:03:23.167Z,20.03
2017-03-23T00:04:22.267Z,20.55
2017-03-23T00:05:21.466Z,18.52
2017-03-23T00:06:22.065Z,19.97
2017-03-23T00:07:20.962Z,22.23
2017-03-23T00:08:20.239Z,22.93
2017-03-23T00:09:19.480Z,19.52
2017-03-23T00:10:18.812Z,21.33
2017-03-23T00:11:17.297Z,20.08
2017-03-23T00:12:16.166Z,23.12
2017-03-23T00:13:15.654Z,21.37
2017-03-23T00:14:14.083Z,26.43
2017-03-23T00:15:12.888Z,23.98
2017-03-23T00:16:11.991Z,24.80
2017-03-23T00:17:10.463Z,20.40
2017-03-23T00:18:09.279Z,24.60
2017-03-23T00:19:07.717Z,24.13
2017-03-23T00:20:06.567Z,22.20
2017-03-23T00:21:05.435Z,23.85
2017-03-23T00:22:04.654Z,24.07
2017-03-23T00:23:03.503Z,30.30
2017-03-23T00:24:02.311Z,20.45
2017-03-23T00:25:01.160Z,22.45
2017-03-23T00:25:59.599Z,20.98
2017-03-23T00:26:58.573Z,25.18
2017-03-23T00:27:57.778Z,21.83
2017-03-23T00:28:56.637Z,21.85
2017-03-23T00:29:55.583Z,23.17
2017-03-23T00:30:54.458Z,20.45
2017-03-23T00:31:53.340Z,24.50
2017-03-23T00:32:52.224Z,21.33
2017-03-23T00:33:51.419Z,24.32
2017-03-23T00:34:51.181Z,24.02
2017-03-23T00:35:50.072Z,23.37
2017-03-23T00:36:48.571Z,25.43
2017-03-23T00:37:47.416Z,21.55
2017-03-23T00:38:46.286Z,22.32
2017-03-23T00:39:45.480Z,21.13
2017-03-23T00:40:43.940Z,22.42
2017-03-23T00:41:43.069Z,20.90
2017-03-23T00:42:41.878Z,19.85
2017-03-23T00:43:40.723Z,22.43
2017-03-23T00:44:39.632Z,21.67
2017-03-23T00:45:38.384Z,21.70
2017-03-23T00:46:37.155Z,24.33
2017-03-23T00:47:35.959Z,24.13
2017-03-23T00:48:34.743Z,22.50
2017-03-23T00:49:33.131Z,23.98
2017-03-23T00:50:31.609Z,23.27
2017-03-23T00:51:30.843Z,23.77
2017-03-23T00:52:29.616Z,22.42
2017-03-23T00:53:28.631Z,21.70
2017-03-23T00:54:27.418Z,24.58
2017-03-23T00:55:25.792Z,24.37
2017-03-23T00:56:24.573Z,22.78
2017-03-23T00:57:23.743Z,22.88
2017-03-23T00:58:22.559Z,24.70
2017-03-23T00:59:21.345Z,21.57
2017-03-23T01:00:20.161Z,25.47
2017-03-23T01:01:18.947Z,23.40
2017-03-23T01:02:17.712Z,23.02
2017-03-23T01:03:16.796Z,25.38
2017-03-23T01:04:15.621Z,26.02
2017-03-23T01:05:19.860Z,20.50
2017-03-23T01:06:24.075Z,21.93
2017-03-23T01:07:28.221Z,25.10
2017-03-23T01:08:32.602Z,23.78
2017-03-23T01:09:36.707Z,22.95
2017-03-23T01:10:40.983Z,24.70
2017-03-23T01:11:45.161Z,26.42
2017-03-23T01:12:49.331Z,21.45
2017-03-23T01:13:53.919Z,23.00
2017-03-23T01:14:58.136Z,26.50
2017-03-23T01:16:01.991Z,23.67
2017-03-23T01:17:06.216Z,21.57
2017-03-23T01:18:10.298Z,29.63
2017-03-23T01:19:09.522Z,22.37
2017-03-23T01:20:08.303Z,22.85
2017-03-23T01:21:07.075Z,23.12
2017-03-23T01:22:05.963Z,23.50
2017-03-23T01:23:04.786Z,26.28
2017-03-23T01:24:03.566Z,25.72
2017-03-23T01:25:02.681Z,26.55
2017-03-23T01:26:01.485Z,25.52
2017-03-23T01:27:00.292Z,24.05
2017-03-23T01:27:59.055Z,28.40
2017-03-23T01:28:57.827Z,24.93
2017-03-23T01:29:56.628Z,23.63
2017-03-23T01:30:55.375Z,24.27
2017-03-23T01:31:54.148Z,28.48
2017-03-23T01:32:52.892Z,27.12
2017-03-23T01:33:51.259Z,23.60
2017-03-23T01:34:50.046Z,27.25
2017-03-23T01:35:48.419Z,25.80
2017-03-23T01:36:47.525Z,26.88
2017-03-23T01:37:46.267Z,26.80
2017-03-23T01:38:45.161Z,28.28
2017-03-23T01:39:43.931Z,27.58
2017-03-23T01:40:42.730Z,23.83
2017-03-23T01:41:41.545Z,23.88
2017-03-23T01:42:40.923Z,23.90
2017-03-23T01:43:39.759Z,25.50
2017-03-23T01:44:39.489Z,24.82
2017-03-23T01:45:38.341Z,24.18
2017-03-23T01:46:36.752Z,24.43
2017-03-23T01:47:35.908Z,25.87
2017-03-23T01:48:35.120Z,24.78
2017-03-23T01:49:34.037Z,26.12
2017-03-23T01:50:32.464Z,23.28
2017-03-23T01:51:30.898Z,26.60
2017-03-23T01:52:29.673Z,25.78
2017-03-23T01:53:28.453Z,24.88
2017-03-23T01:54:27.276Z,25.17
2017-03-23T01:55:26.169Z,22.58
2017-03-23T01:56:25.079Z,25.35
2017-03-23T01:57:23.521Z,25.90
2017-03-23T01:58:22.725Z,24.97
2017-03-23T01:59:21.588Z,24.70
2017-03-23T02:00:21.639Z,25.80
2017-03-23T02:01:20.055Z,24.60
2017-03-23T02:02:19.009Z,23.52
2017-03-23T02:03:17.870Z,23.52
2017-03-23T02:04:16.700Z,25.25
2017-03-23T02:05:15.571Z,22.25
2017-03-23T02:06:15.507Z,23.78
2017-03-23T02:07:14.305Z,24.12
2017-03-23T02:08:13.466Z,23.40
2017-03-23T02:09:12.692Z,25.28
2017-03-23T02:10:11.623Z,26.08
2017-03-23T02:11:10.523Z,24.70
2017-03-23T02:12:09.783Z,30.30
2017-03-23T02:13:08.625Z,25.85
2017-03-23T02:14:07.459Z,25.32
2017-03-23T02:15:05.964Z,22.57
2017-03-23T02:16:04.883Z,26.12
2017-03-23T02:17:03.716Z,26.75
2017-03-23T02:18:02.879Z,26.00
2017-03-23T02:19:01.664Z,25.78
2017-03-23T02:20:00.133Z,26.12
2017-03-23T02:20:58.999Z,24.83
2017-03-23T02:21:57.434Z,26.03
2017-03-23T02:22:56.210Z,23.22
2017-03-23T02:23:55.318Z,26.47
2017-03-23T02:24:54.179Z,25.37
2017-03-23T02:25:53.068Z,27.15
2017-03-23T02:26:51.953Z,26.27
2017-03-23T02:27:50.872Z,24.82
2017-03-23T02:28:49.755Z,25.32
2017-03-23T02:29:48.964Z,27.80
2017-03-23T02:30:47.785Z,29.27
2017-03-23T02:31:46.694Z,25.47
2017-03-23T02:32:45.559Z,25.80
2017-03-23T02:33:44.423Z,25.45
2017-03-23T02:34:43.275Z,28.25
2017-03-23T02:35:42.361Z,26.22
2017-03-23T02:36:40.736Z,23.47
2017-03-23T02:37:39.561Z,26.40
2017-03-23T02:38:38.340Z,24.05
2017-03-23T02:39:37.120Z,30.37
2017-03-23T02:40:35.907Z,28.72
2017-03-23T02:41:34.596Z,27.33
2017-03-23T02:42:32.979Z,27.07
2017-03-23T02:43:31.387Z,31.27
2017-03-23T02:44:30.152Z,29.48
2017-03-23T02:45:28.940Z,26.48
2017-03-23T02:46:27.756Z,26.15
2017-03-23T02:47:26.904Z,26.73
2017-03-23T02:48:25.684Z,27.27
2017-03-23T02:49:24.462Z,29.17
2017-03-23T02:50:23.387Z,30.40
2017-03-23T02:51:23.871Z,29.22
2017-03-23T02:52:22.711Z,29.95
2017-03-23T02:53:21.818Z,26.87
2017-03-23T02:54:20.234Z,27.92
2017-03-23T02:55:19.383Z,32.22
2017-03-23T02:56:18.167Z,33.08
2017-03-23T02:57:16.956Z,29.63
2017-03-23T02:58:15.723Z,31.65
2017-03-23T02:59:14.805Z,29.45
2017-03-23T03:00:13.681Z,29.98
2017-03-23T03:01:12.464Z,32.78
2017-03-23T03:02:11.217Z,27.82
2017-03-23T03:03:10.009Z,30.98
2017-03-23T03:04:08.791Z,30.07
2017-03-23T03:05:07.977Z,35.37
2017-03-23T03:06:06.746Z,32.62
2017-03-23T03:07:05.535Z,32.48
2017-03-23T03:08:04.351Z,31.68
2017-03-23T03:09:03.903Z,32.18
2017-03-23T03:10:02.734Z,32.22
2017-03-23T03:11:01.871Z,36.68
2017-03-23T03:12:00.648Z,30.97
2017-03-23T03:12:59.493Z,35.80
2017-03-23T03:13:57.906Z,33.58
2017-03-23T03:14:56.671Z,30.40
2017-03-23T03:15:55.492Z,36.27
2017-03-23T03:16:54.267Z,32.50
2017-03-23T03:17:53.060Z,35.28
2017-03-23T03:18:52.161Z,32.88
2017-03-23T03:19:51.022Z,34.52
2017-03-23T03:20:49.411Z,35.83
2017-03-23T03:21:48.174Z,37.75
2017-03-23T03:22:46.896Z,34.88
2017-03-23T03:23:45.696Z,41.32
2017-03-23T03:24:44.479Z,40.28
2017-03-23T03:25:42.827Z,37.10
2017-03-23T03:26:41.599Z,38.08
2017-03-23T03:27:40.387Z,34.50
2017-03-23T03:28:39.463Z,33.77
2017-03-23T03:29:38.247Z,31.62
2017-03-23T03:30:37.020Z,36.70
2017-03-23T03:31:35.854Z,34.45
2017-03-23T03:32:34.635Z,34.38
2017-03-23T03:33:33.457Z,32.00
2017-03-23T03:34:32.573Z,32.07
2017-03-23T03:35:31.384Z,35.35
2017-03-23T03:36:30.163Z,34.22
2017-03-23T03:37:29.039Z,32.37
2017-03-23T03:38:27.811Z,33.98
2017-03-23T03:39:26.624Z,33.00
2017-03-23T03:40:25.811Z,33.83
2017-03-23T03:41:24.638Z,36.23
2017-03-23T03:42:23.475Z,34.73
2017-03-23T03:43:22.261Z,33.13
2017-03-23T03:44:21.082Z,31.47
2017-03-23T03:45:19.466Z,33.55
2017-03-23T03:46:18.196Z,30.20
2017-03-23T03:47:16.990Z,29.05
2017-03-23T03:48:15.363Z,36.30
2017-03-23T03:49:13.811Z,34.65
2017-03-23T03:50:12.575Z,33.48
2017-03-23T03:51:11.389Z,32.85
2017-03-23T03:52:10.168Z,31.50
2017-03-23T03:53:08.594Z,32.08
2017-03-23T03:54:07.380Z,33.42
2017-03-23T03:55:06.171Z,31.28
2017-03-23T03:56:04.941Z,30.18
2017-03-23T03:57:03.764Z,33.37
2017-03-23T03:58:02.498Z,35.28
2017-03-23T03:59:01.288Z,36.42
2017-03-23T04:00:00.071Z,31.90
2017-03-23T04:00:58.468Z,30.67
2017-03-23T04:01:57.268Z,33.57
2017-03-23T04:02:56.083Z,33.38
2017-03-23T04:03:55.257Z,32.03
2017-03-23T04:04:54.019Z,29.90
2017-03-23T04:05:52.792Z,29.55
2017-03-23T04:06:51.560Z,31.85
2017-03-23T04:07:50.377Z,34.55
2017-03-23T04:08:49.169Z,38.98
2017-03-23T04:09:48.327Z,34.78
2017-03-23T04:10:47.119Z,32.38
2017-03-23T04:11:45.940Z,33.10
2017-03-23T04:12:44.737Z,35.23
2017-03-23T04:13:43.528Z,32.72
2017-03-23T04:14:42.291Z,31.43
2017-03-23T04:15:41.404Z,33.53
2017-03-23T04:16:40.187Z,32.08
2017-03-23T04:17:39.006Z,34.80
2017-03-23T04:18:37.784Z,32.60
2017-03-23T04:19:36.160Z,34.18
2017-03-23T04:20:34.984Z,31.63
2017-03-23T04:21:34.175Z,36.95
2017-03-23T04:22:32.995Z,34.10
2017-03-23T04:23:31.834Z,32.98
2017-03-23T04:24:30.619Z,34.18
2017-03-23T04:25:29.433Z,36.77
2017-03-23T04:26:28.583Z,32.82
2017-03-23T04:27:27.251Z,37.12
2017-03-23T04:28:26.035Z,34.17
2017-03-23T04:29:24.815Z,35.53
2017-03-23T04:30:23.612Z,38.35
2017-03-23T04:31:22.423Z,32.53
2017-03-23T04:32:21.249Z,32.35
2017-03-23T04:33:20.436Z,31.97
2017-03-23T04:34:19.223Z,33.50
2017-03-23T04:35:18.023Z,32.53
2017-03-23T04:36:16.796Z,35.57
2017-03-23T04:37:15.580Z,31.30
2017-03-23T04:38:13.974Z,34.62
2017-03-23T04:39:13.100Z,33.17
2017-03-23T04:40:11.885Z,33.05
2017-03-23T04:41:10.693Z,37.25
2017-03-23T04:42:09.448Z,34.95
2017-03-23T04:43:08.237Z,34.63
2017-03-23T04:44:06.642Z,31.50
2017-03-23T04:45:05.776Z,33.63
2017-03-23T04:46:04.607Z,31.62
2017-03-23T04:47:03.390Z,30.72
2017-03-23T04:48:02.202Z,33.03
2017-03-23T04:49:00.979Z,34.97
2017-03-23T04:49:59.814Z,33.27
2017-03-23T04:50:58.950Z,35.95
2017-03-23T04:51:57.731Z,34.17
2017-03-23T04:52:56.506Z,31.85
2017-03-23T04:53:55.325Z,36.15
2017-03-23T04:54:54.119Z,33.33
2017-03-23T04:55:52.966Z,34.88
2017-03-23T04:56:51.680Z,32.67
2017-03-23T04:57:50.523Z,34.23
2017-03-23T04:58:49.689Z,34.47
2017-03-23T04:59:49.175Z,35.10
2017-03-23T05:00:48.025Z,31.88
2017-03-23T05:01:46.812Z,29.30
2017-03-23T05:02:46.015Z,34.90
2017-03-23T05:03:44.849Z,39.77
2017-03-23T05:04:43.651Z,34.00
2017-03-23T05:05:42.061Z,40.98
2017-03-23T05:06:40.496Z,34.65
2017-03-23T05:07:39.291Z,35.17
2017-03-23T05:08:38.390Z,33.98
2017-03-23T05:09:37.209Z,39.97
2017-03-23T05:10:36.080Z,36.13
2017-03-23T05:11:34.465Z,33.98
2017-03-23T05:12:33.249Z,33.70
2017-03-23T05:13:31.629Z,36.02
2017-03-23T05:14:30.751Z,33.67
2017-03-23T05:15:29.521Z,35.18
2017-03-23T05:16:28.311Z,34.20
2017-03-23T05:17:27.122Z,34.68
2017-03-23T05:18:25.898Z,38.20
2017-03-23T05:19:24.663Z,37.20
2017-03-23T05:20:23.732Z,37.22
2017-03-23T05:21:22.147Z,34.20
2017-03-23T05:22:20.542Z,36.28
2017-03-23T05:23:19.399Z,35.03
2017-03-23T05:24:18.183Z,36.35
2017-03-23T05:25:16.949Z,31.90
2017-03-23T05:26:15.655Z,36.77
2017-03-23T05:27:14.415Z,32.32
2017-03-23T05:28:13.196Z,33.58
2017-03-23T05:29:11.964Z,32.40
2017-03-23T05:30:10.743Z,33.18
2017-03-23T05:31:09.512Z,38.53
2017-03-23T05:32:08.947Z,34.88
2017-03-23T05:33:07.722Z,31.20
2017-03-23T05:34:06.497Z,34.00
2017-03-23T05:35:05.313Z,35.60
2017-03-23T05:36:04.114Z,28.28
2017-03-23T05:37:02.982Z,31.15
2017-03-23T05:38:02.127Z,33.35
2017-03-23T05:39:00.880Z,32.03
2017-03-23T05:39:59.662Z,33.70
2017-03-23T05:40:58.477Z,33.68
2017-03-23T05:41:58.331Z,30.93
2017-03-23T05:42:57.164Z,30.32
2017-03-23T05:43:56.219Z,31.13
2017-03-23T05:44:55.027Z,31.15
2017-03-23T05:45:53.786Z,31.78
2017-03-23T05:46:52.595Z,30.93
2017-03-23T05:47:50.951Z,31.35
2017-03-23T05:48:49.763Z,37.00
2017-03-23T05:49:49.310Z,32.58
2017-03-23T05:50:48.096Z,31.63
2017-03-23T05:51:46.876Z,29.07
2017-03-23T05:52:45.659Z,31.30
2017-03-23T05:53:44.426Z,30.12
2017-03-23T05:54:42.851Z,28.32
2017-03-23T05:55:41.515Z,28.55
2017-03-23T05:56:40.269Z,29.85
2017-03-23T05:57:39.010Z,32.35
2017-03-23T05:58:37.751Z,28.25
2017-03-23T05:59:36.528Z,33.23
2017-03-23T06:00:35.299Z,30.12
2017-03-23T06:01:34.349Z,30.30
2017-03-23T06:02:33.110Z,28.83
2017-03-23T06:03:31.856Z,32.60
2017-03-23T06:04:30.599Z,31.82
2017-03-23T06:05:28.983Z,28.52
2017-03-23T06:06:27.768Z,29.48
2017-03-23T06:07:26.891Z,31.08
2017-03-23T06:08:25.672Z,31.83
2017-03-23T06:09:24.447Z,29.33
2017-03-23T06:10:23.223Z,29.90
2017-03-23T06:11:22.007Z,29.83
2017-03-23T06:12:20.795Z,31.50
2017-03-23T06:13:19.914Z,30.65
2017-03-23T06:14:18.679Z,33.98
2017-03-23T06:15:17.458Z,29.90
2017-03-23T06:16:16.236Z,32.25
2017-03-23T06:17:14.631Z,39.30
2017-03-23T06:18:13.387Z,32.88
2017-03-23T06:19:12.433Z,36.93
2017-03-23T06:20:11.218Z,42.20
2017-03-23T06:21:09.984Z,36.98
2017-03-23T06:22:08.769Z,33.13
2017-03-23T06:23:07.535Z,35.15
2017-03-23T06:24:06.297Z,34.87
2017-03-23T06:25:05.404Z,35.57
2017-03-23T06:26:04.183Z,34.45
2017-03-23T06:27:02.996Z,36.03
2017-03-23T06:28:01.921Z,35.25
2017-03-23T06:29:00.687Z,30.97
2017-03-23T06:29:59.482Z,30.45
2017-03-23T06:30:58.529Z,32.17
2017-03-23T06:31:57.330Z,31.03
2017-03-23T06:32:56.078Z,30.88
2017-03-23T06:33:55.228Z,29.30
2017-03-23T06:34:53.988Z,32.33
2017-03-23T06:35:52.389Z,29.37
2017-03-23T06:36:51.470Z,30.30
2017-03-23T06:37:49.825Z,32.72
2017-03-23T06:38:48.604Z,30.05
2017-03-23T06:39:47.432Z,33.12
2017-03-23T06:40:46.204Z,30.93
2017-03-23T06:41:44.594Z,31.98
2017-03-23T06:42:43.712Z,33.87
2017-03-23T06:43:42.500Z,34.43
2017-03-23T06:44:41.271Z,30.42
2017-03-23T06:45:40.024Z,32.75
2017-03-23T06:46:38.797Z,32.05
2017-03-23T06:47:37.538Z,32.53
2017-03-23T06:48:36.905Z,32.72
2017-03-23T06:49:35.691Z,30.38
2017-03-23T06:50:34.528Z,30.70
2017-03-23T06:51:33.203Z,31.15
2017-03-23T06:52:31.980Z,32.05
2017-03-23T06:53:31.069Z,36.88
2017-03-23T06:54:29.765Z,33.78
2017-03-23T06:55:28.539Z,46.18
2017-03-23T06:56:27.353Z,50.12
2017-03-23T06:57:26.124Z,33.65
2017-03-23T06:58:24.511Z,30.42
2017-03-23T06:59:23.304Z,31.73
2017-03-23T07:00:24.031Z,32.47
2017-03-23T07:01:23.481Z,35.60
2017-03-23T07:02:22.278Z,30.80
2017-03-23T07:03:21.072Z,30.72
2017-03-23T07:04:19.438Z,29.15
2017-03-23T07:05:18.290Z,34.02
2017-03-23T07:06:17.039Z,31.80
2017-03-23T07:07:15.883Z,31.52
2017-03-23T07:08:14.707Z,32.37
2017-03-23T07:09:13.471Z,29.55
2017-03-23T07:10:11.848Z,31.90
2017-03-23T07:11:13.620Z,29.38
2017-03-23T07:12:12.783Z,30.47
2017-03-23T07:13:11.643Z,35.57
2017-03-23T07:14:10.405Z,30.60
2017-03-23T07:15:08.796Z,31.35
2017-03-23T07:16:07.148Z,28.48
2017-03-23T07:17:05.914Z,28.03
2017-03-23T07:18:04.695Z,30.85
2017-03-23T07:19:03.475Z,30.40
2017-03-23T07:20:02.254Z,31.90
2017-03-23T07:21:01.048Z,30.08
2017-03-23T07:21:59.826Z,31.37
2017-03-23T07:22:58.643Z,30.32
2017-03-23T07:23:57.711Z,31.80
2017-03-23T07:24:56.523Z,33.25
2017-03-23T07:25:55.288Z,30.92
2017-03-23T07:26:54.075Z,32.13
2017-03-23T07:27:53.644Z,32.38
2017-03-23T07:28:52.804Z,28.42
2017-03-23T07:29:51.919Z,29.80
2017-03-23T07:30:50.711Z,28.32
2017-03-23T07:31:49.524Z,34.63
2017-03-23T07:32:48.624Z,33.30
2017-03-23T07:33:47.363Z,29.72
2017-03-23T07:34:46.264Z,32.27
2017-03-23T07:35:45.339Z,30.25
2017-03-23T07:36:44.112Z,30.97
2017-03-23T07:37:42.965Z,31.68
2017-03-23T07:38:41.745Z,39.55
2017-03-23T07:39:40.510Z,34.95
2017-03-23T07:40:39.271Z,34.38
2017-03-23T07:41:38.395Z,32.35
2017-03-23T07:42:37.137Z,37.62
2017-03-23T07:43:35.887Z,31.48
2017-03-23T07:44:34.631Z,34.22
2017-03-23T07:45:33.412Z,31.07
2017-03-23T07:46:32.168Z,29.83
2017-03-23T07:47:31.219Z,30.93
2017-03-23T07:48:30.084Z,27.63
2017-03-23T07:49:28.506Z,32.40
2017-03-23T07:50:27.284Z,32.48
2017-03-23T07:51:26.095Z,33.05
2017-03-23T07:52:24.880Z,30.93
2017-03-23T07:53:24.023Z,30.45
2017-03-23T07:54:22.879Z,35.03
2017-03-23T07:55:21.271Z,34.77
2017-03-23T07:56:19.676Z,32.18
2017-03-23T07:57:18.432Z,31.15
2017-03-23T07:58:16.792Z,34.10
2017-03-23T07:59:15.819Z,28.73
2017-03-23T08:00:14.733Z,31.25
2017-03-23T08:01:13.600Z,28.63
2017-03-23T08:02:13.669Z,29.88
2017-03-23T08:03:12.488Z,29.87
2017-03-23T08:04:11.575Z,30.05
2017-03-23T08:05:10.288Z,28.28
2017-03-23T08:06:09.149Z,30.90
2017-03-23T08:07:07.973Z,30.55
2017-03-23T08:08:07.108Z,32.62
2017-03-23T08:09:07.079Z,30.13
2017-03-23T08:10:05.947Z,30.27
2017-03-23T08:11:05.036Z,30.88
2017-03-23T08:12:04.183Z,30.82
2017-03-23T08:13:03.079Z,31.37
2017-03-23T08:14:01.973Z,29.40
2017-03-23T08:15:00.758Z,30.72
2017-03-23T08:15:59.563Z,32.68
2017-03-23T08:16:58.790Z,31.03
2017-03-23T08:17:57.579Z,33.53
2017-03-23T08:18:56.407Z,29.32
2017-03-23T08:19:55.175Z,28.07
2017-03-23T08:20:53.940Z,29.80
2017-03-23T08:21:53.098Z,28.18
2017-03-23T08:22:52.172Z,33.53
2017-03-23T08:23:50.915Z,27.65
2017-03-23T08:24:49.692Z,32.12
2017-03-23T08:25:48.453Z,30.17
2017-03-23T08:26:46.852Z,33.77
2017-03-23T08:27:45.618Z,28.02
2017-03-23T08:28:44.742Z,30.37
2017-03-23T08:29:43.503Z,29.78
2017-03-23T08:30:42.292Z,26.50
2017-03-23T08:31:41.096Z,30.43
2017-03-23T08:32:39.864Z,29.92
2017-03-23T08:33:38.626Z,28.40
2017-03-23T08:34:37.675Z,30.17
2017-03-23T08:35:36.469Z,30.18
2017-03-23T08:36:35.251Z,27.53
2017-03-23T08:37:34.048Z,25.97
2017-03-23T08:38:32.820Z,30.33
2017-03-23T08:39:31.623Z,29.00
2017-03-23T08:40:30.691Z,30.50
2017-03-23T08:41:30.102Z,27.03
2017-03-23T08:42:28.953Z,26.68
2017-03-23T08:43:27.781Z,27.57
2017-03-23T08:44:27.001Z,32.45
2017-03-23T08:45:25.446Z,26.00
2017-03-23T08:46:24.610Z,31.98
2017-03-23T08:47:23.470Z,29.05
2017-03-23T08:48:22.269Z,27.75
2017-03-23T08:49:21.467Z,29.22
2017-03-23T08:50:19.912Z,30.97
2017-03-23T08:51:18.753Z,27.95
2017-03-23T08:52:18.297Z,29.65
2017-03-23T08:53:17.124Z,29.60
2017-03-23T08:54:15.578Z,31.95
2017-03-23T08:55:14.413Z,29.97
2017-03-23T08:56:13.241Z,28.03
2017-03-23T08:57:12.164Z,26.12
2017-03-23T08:58:11.385Z,27.37
2017-03-23T08:59:09.838Z,28.77
2017-03-23T09:00:08.709Z,30.17
2017-03-23T09:01:07.553Z,27.43
2017-03-23T09:02:07.488Z,28.42
2017-03-23T09:03:06.384Z,26.82
2017-03-23T09:04:05.571Z,26.90
2017-03-23T09:05:04.402Z,28.83
2017-03-23T09:06:02.949Z,30.45
2017-03-23T09:07:01.796Z,26.25
2017-03-23T09:08:02.669Z,27.68
2017-03-23T09:09:01.571Z,30.17
2017-03-23T09:10:00.799Z,25.47
2017-03-23T09:10:59.715Z,28.13
2017-03-23T09:11:58.542Z,27.22
2017-03-23T09:12:57.467Z,26.47
2017-03-23T09:13:56.290Z,31.73
2017-03-23T09:14:55.158Z,28.23
2017-03-23T09:15:54.222Z,28.20
2017-03-23T09:16:53.375Z,27.53
2017-03-23T09:17:52.230Z,26.47
2017-03-23T09:18:51.036Z,27.88
2017-03-23T09:19:49.890Z,27.08
2017-03-23T09:20:48.741Z,27.92
2017-03-23T09:21:47.968Z,30.35
2017-03-23T09:22:46.820Z,28.05
2017-03-23T09:23:45.644Z,26.20
2017-03-23T09:24:44.539Z,30.30
2017-03-23T09:25:43.015Z,32.03
2017-03-23T09:26:41.830Z,29.55
2017-03-23T09:27:41.052Z,27.95
2017-03-23T09:28:39.889Z,29.30
2017-03-23T09:29:38.778Z,28.87
2017-03-23T09:30:37.671Z,29.52
2017-03-23T09:31:43.194Z,29.73
2017-03-23T09:32:42.412Z,29.33
2017-03-23T09:33:41.290Z,27.95
2017-03-23T09:34:40.125Z,27.62
2017-03-23T09:35:38.931Z,26.93
2017-03-23T09:36:37.424Z,27.35
2017-03-23T09:37:36.271Z,28.38
2017-03-23T09:38:35.397Z,30.07
2017-03-23T09:39:34.226Z,28.45
2017-03-23T09:40:32.779Z,26.68
2017-03-23T09:41:31.210Z,28.62
2017-03-23T09:42:30.052Z,29.30
2017-03-23T09:43:28.697Z,28.40
2017-03-23T09:44:27.841Z,26.78
2017-03-23T09:45:26.697Z,29.30
2017-03-23T09:46:25.560Z,26.70
2017-03-23T09:47:24.495Z,28.27
2017-03-23T09:48:23.353Z,27.98
2017-03-23T09:49:22.184Z,26.35
2017-03-23T09:50:21.441Z,24.87
2017-03-23T09:51:20.288Z,29.75
2017-03-23T09:52:19.106Z,25.07
2017-03-23T09:53:17.948Z,26.57
2017-03-23T09:54:17.047Z,25.03
2017-03-23T09:55:15.878Z,26.92
2017-03-23T09:56:15.035Z,25.82
2017-03-23T09:57:13.921Z,27.18
2017-03-23T09:58:12.794Z,26.10
2017-03-23T09:59:11.508Z,23.65
2017-03-23T10:00:10.008Z,29.10
2017-03-23T10:01:08.466Z,25.67
2017-03-23T10:02:07.287Z,28.05
2017-03-23T10:03:06.250Z,27.23
2017-03-23T10:04:05.116Z,28.05
2017-03-23T10:05:04.014Z,26.68
2017-03-23T10:06:02.913Z,27.30
2017-03-23T10:07:01.775Z,25.37
2017-03-23T10:08:00.983Z,28.33
2017-03-23T10:08:59.432Z,23.20
2017-03-23T10:09:58.305Z,25.85
2017-03-23T10:10:57.165Z,31.90
2017-03-23T10:11:57.119Z,26.35
2017-03-23T10:12:55.961Z,26.73
2017-03-23T10:13:55.176Z,28.52
2017-03-23T10:14:54.021Z,27.97
2017-03-23T10:15:52.497Z,28.63
2017-03-23T10:16:51.312Z,28.73
2017-03-23T10:17:50.132Z,26.87
2017-03-23T10:18:49.121Z,30.90
2017-03-23T10:19:48.472Z,29.22
2017-03-23T10:20:47.345Z,27.47
2017-03-23T10:21:46.195Z,35.62
2017-03-23T10:22:45.030Z,26.73
2017-03-23T10:23:43.850Z,34.33
2017-03-23T10:24:42.695Z,27.40
2017-03-23T10:25:41.480Z,27.93
2017-03-23T10:26:39.896Z,27.97
2017-03-23T10:27:38.725Z,25.53
2017-03-23T10:28:37.585Z,24.65
2017-03-23T10:29:36.058Z,29.97
2017-03-23T10:30:34.882Z,29.62
2017-03-23T10:31:34.007Z,25.33
2017-03-23T10:32:32.495Z,27.50
2017-03-23T10:33:31.392Z,27.05
2017-03-23T10:34:30.211Z,22.75
2017-03-23T10:35:29.052Z,26.50
2017-03-23T10:36:27.885Z,28.80
2017-03-23T10:37:27.188Z,23.18
2017-03-23T10:38:25.724Z,21.33
2017-03-23T10:39:24.565Z,20.92
2017-03-23T10:40:23.437Z,21.43
2017-03-23T10:41:22.305Z,22.33
2017-03-23T10:42:21.192Z,22.77
2017-03-23T10:43:19.962Z,23.58
2017-03-23T10:44:18.789Z,23.83
2017-03-23T10:45:17.644Z,23.77
2017-03-23T10:46:16.524Z,25.75
2017-03-23T10:47:15.360Z,23.98
2017-03-23T10:48:14.189Z,21.82
2017-03-23T10:49:13.341Z,25.03
2017-03-23T10:50:12.157Z,26.83
2017-03-23T10:51:10.594Z,23.55
2017-03-23T10:52:09.054Z,25.00
2017-03-23T10:53:07.921Z,28.77
2017-03-23T10:54:06.734Z,21.37
2017-03-23T10:55:05.900Z,22.68
2017-03-23T10:56:04.757Z,23.03
2017-03-23T10:57:03.645Z,25.18
2017-03-23T10:58:02.516Z,21.67
2017-03-23T10:59:01.418Z,22.43
2017-03-23T11:00:00.257Z,22.28
2017-03-23T11:00:59.481Z,24.20
2017-03-23T11:01:58.365Z,21.85
2017-03-23T11:02:57.213Z,24.22
2017-03-23T11:03:56.086Z,24.23
2017-03-23T11:04:54.956Z,23.62
2017-03-23T11:05:53.793Z,25.77
2017-03-23T11:06:52.986Z,22.03
2017-03-23T11:07:52.187Z,22.33
2017-03-23T11:08:51.064Z,24.03
2017-03-23T11:09:49.532Z,22.38
2017-03-23T11:10:48.421Z,22.08
2017-03-23T11:11:47.231Z,24.68
2017-03-23T11:12:46.358Z,24.55
2017-03-23T11:13:44.796Z,23.35
2017-03-23T11:14:43.649Z,24.57
2017-03-23T11:15:42.506Z,28.65
2017-03-23T11:16:41.357Z,21.00
2017-03-23T11:17:39.836Z,20.10
2017-03-23T11:18:38.967Z,20.50
2017-03-23T11:19:37.808Z,24.75
2017-03-23T11:20:37.014Z,21.17
2017-03-23T11:21:36.253Z,25.30
2017-03-23T11:22:35.156Z,23.32
2017-03-23T11:23:34.003Z,21.13
2017-03-23T11:24:33.225Z,20.28
2017-03-23T11:25:32.136Z,20.13
2017-03-23T11:26:31.005Z,21.10
2017-03-23T11:27:29.872Z,22.25
2017-03-23T11:28:28.333Z,23.05
2017-03-23T11:29:26.871Z,24.18
2017-03-23T11:30:26.020Z,20.10
2017-03-23T11:31:24.903Z,22.63
2017-03-23T11:32:23.804Z,20.75
2017-03-23T11:33:22.661Z,22.95
2017-03-23T11:34:21.133Z,23.98
2017-03-23T11:35:19.611Z,23.03
2017-03-23T11:36:18.326Z,21.53
2017-03-23T11:37:17.172Z,23.72
2017-03-23T11:38:16.013Z,22.05
2017-03-23T11:39:14.849Z,20.40
2017-03-23T11:40:13.317Z,20.93
2017-03-23T11:41:12.136Z,22.63
2017-03-23T11:42:11.317Z,23.18
2017-03-23T11:43:12.402Z,21.95
2017-03-23T11:44:10.816Z,19.65
2017-03-23T11:45:09.833Z,18.08
2017-03-23T11:46:08.653Z,18.93
2017-03-23T11:47:07.400Z,17.93
2017-03-23T11:48:06.131Z,19.90
2017-03-23T11:49:04.895Z,17.77
2017-03-23T11:50:03.652Z,18.23
2017-03-23T11:51:02.443Z,20.13
2017-03-23T11:52:01.252Z,20.12
2017-03-23T11:52:59.641Z,20.62
2017-03-23T11:53:59.111Z,20.32
2017-03-23T11:54:57.907Z,19.85
2017-03-23T11:55:56.652Z,23.23
2017-03-23T11:56:55.420Z,19.55
2017-03-23T11:57:54.181Z,19.37
2017-03-23T11:58:52.943Z,17.22
2017-03-23T11:59:52.082Z,23.05
2017-03-23T12:00:50.842Z,17.85
2017-03-23T12:01:50.372Z,25.47
2017-03-23T12:02:49.136Z,21.17
2017-03-23T12:03:47.908Z,19.97
2017-03-23T12:04:47.145Z,21.58
2017-03-23T12:05:46.093Z,21.55
2017-03-23T12:06:44.867Z,20.25
2017-03-23T12:07:43.764Z,22.02
2017-03-23T12:08:42.588Z,21.95
2017-03-23T12:09:41.364Z,20.53
2017-03-23T12:10:40.159Z,18.50
2017-03-23T12:11:41.806Z,22.30
2017-03-23T12:12:40.816Z,23.55
2017-03-23T12:13:39.608Z,20.95
2017-03-23T12:14:39.700Z,22.32
2017-03-23T12:15:38.461Z,20.97
2017-03-23T12:16:37.598Z,18.87
2017-03-23T12:17:36.755Z,20.87
2017-03-23T12:18:35.507Z,19.27
2017-03-23T12:19:34.298Z,19.62
2017-03-23T12:20:33.055Z,18.13
2017-03-23T12:21:31.448Z,21.35
2017-03-23T12:22:30.223Z,20.28
2017-03-23T12:23:29.407Z,19.18
2017-03-23T12:24:28.264Z,20.60
2017-03-23T12:25:27.111Z,19.20
2017-03-23T12:26:25.915Z,19.13
2017-03-23T12:27:24.707Z,19.47
2017-03-23T12:28:23.485Z,17.55
2017-03-23T12:29:22.601Z,17.78
2017-03-23T12:30:21.411Z,18.62
2017-03-23T12:31:20.184Z,20.15
2017-03-23T12:32:19.087Z,18.78
2017-03-23T12:33:17.877Z,18.02
2017-03-23T12:34:16.643Z,17.33
2017-03-23T12:35:15.767Z,17.50
2017-03-23T12:36:14.599Z,17.42
2017-03-23T12:37:13.371Z,18.63
2017-03-23T12:38:12.144Z,19.03
2017-03-23T12:39:10.930Z,18.32